AirNav   ATP
 
 1509 users online  

NV21 Sky Ranch Heliport
Sandy Valley, Nevada, USA

GOING TO SANDY VALLEY?


FAA INFORMATION EFFECTIVE 07 DECEMBER 2017

Location

FAA Identifier: NV21
Lat/Long: 35-47-00.0300N / 115-37-33.2800W
35-47.000500N / 115-37.554667W
35.7833417 / -115.6259111
(estimated)
Elevation: 2599 ft. / 792 m (estimated)
Variation: 14E (1985)
From city: 30 miles SW of SANDY VALLEY, NV
Time zone: UTC -8 (UTC -7 during Daylight Saving Time)
Zip code: 89019

Heliport Operations

Heliport use: Private use. Permission required prior to landing
Activation date: 07/1991
Control tower: no
ARTCC: LOS ANGELES CENTER
FSS: RENO FLIGHT SERVICE STATION
Attendance: UNATNDD
Segmented circle: no

Nearby radio navigation aids

VOR radial/distance  VOR name  Freq  Var
LASr217/28.8LAS VEGAS VORTAC116.9015E
BLDr236/39.2BOULDER CITY VORTAC116.7015E

Heliport Services

Runway Information

Helipad H1

Dimensions: 54 x 54 ft. / 16 x 16 m
Surface: concrete
Latitude: 35-47.000500N
Longitude: 115-37.554667W
Elevation: 2599.0 ft.
Traffic pattern: leftleft

Heliport Ownership and Management from official FAA records

Ownership: Privately-owned
Owner: MEL AND MARILYN LARSON
13000 S. LAS VEGAS BLVD.
LAS VEGAS, NV 89044
Phone 702-361-0013
702-361-3001
Manager: MEL AND MARILYN LARSON
13000 S. LAS VEGAS BLVD.
LAS VEGAS, NV 89044
Phone 702-361-0013
702-361-3001

Instrument Procedures

There are no published instrument procedures at NV21.

Some nearby airports with instrument procedures:

KHND - Henderson Executive Airport (26 nm NE)
KLAS - Mc Carran International Airport (29 nm NE)
KVGT - North Las Vegas Airport (33 nm NE)
KBVU - Boulder City Municipal Airport (38 nm E)
KLSV - Nellis Air Force Base (40 nm NE)
 
Loc | Ops | Rwys | IFR | FBO | Links
Com | Nav | Svcs | Stats | Notes


 
Area around NV21 (Sky Ranch Heliport)
 
Road maps at: MapQuest Bing Google
 
Aerial photo
No photo
 
Sectional chart

 
Airport distance calculator
Flying to Sky Ranch Heliport? Find the distance to fly.

From to NV21

Sunrise and sunset
Times for 11-Dec-2017
 Local
(UTC-8)
 Zulu
(UTC)
Morning civil twilight06:1514:15
Sunrise06:4314:43
Sunset16:2800:28
Evening civil twilight16:5700:57

Current date and time
Zulu (UTC)  11-Dec-2017 17:19:09
Local (UTC-8)  11-Dec-2017 09:19:09
 
METAR
KHND 
27nm NE 
111656Z 19004KT 10SM CLR 08/M17 A3043 RMK AO2 SLP314 T00831167 $
KLAS 
29nm NE 
111656Z 19005KT 10SM SCT250 11/M17 A3041 RMK AO2 SLP295 T01111172
KVGT 
32nm NE 
111653Z 32009KT 10SM CLR 11/M21 A3041 RMK AO2 SLP319 T01061206
KBVU 
38nm E 
111655Z AUTO 00000KT 10SM 11/M18 A3042 RMK AO2
KLSV 
39nm NE 
111658Z AUTO 00000KT 10SM CLR 05/M17 A3042 RMK AO2 SLP306 T00451166 $
KINS 
48nm N 
111658Z AUTO 00000KT 10SM CLR 02/M23 A3042 RMK AO2 SLP307 T00211235 $
TAF
KHND 
27nm NE 
111120Z 1112/1212 VRB05KT P6SM BKN250 FM120100 17008KT P6SM BKN250
KLAS 
29nm NE 
111120Z 1112/1218 22005KT P6SM BKN250 FM111600 VRB05KT P6SM BKN250 FM120200 22006KT P6SM BKN250 FM121600 VRB05KT P6SM SKC
KVGT 
32nm NE 
111120Z 1112/1212 33006KT P6SM BKN250 FM111700 VRB05KT P6SM BKN250 FM120300 33006KT P6SM BKN250
NOTAMs
Click for the latest NOTAMs
NOTAMs are issued by the DoD/FAA and will open in a separate window not controlled by AirNav.

 

 
 

Would you like to see your business listed on this page?

 If your business provides an interesting product or service to pilots, flight crews, aircraft, or users of the Sky Ranch Heliport, you should consider listing it here.  To start the listing process, click on the button below
 
Add a business
 

Other Pages about Sky Ranch Heliport

Update a link
 
Copyright © AirNav, LLC. All rights reserved. Privacy Policy  Contact